sensor_id;sensor_type;location;lat;lon;timestamp;P1;durP1;ratioP1;P2;durP2;ratioP2
80681;SDS011;70045;40.200;44.582;2024-01-11T00:01:44;18.35;;;8.73;;
80681;SDS011;70045;40.200;44.582;2024-01-11T00:04:10;19.35;;;9.40;;
80681;SDS011;70045;40.200;44.582;2024-01-11T00:06:39;21.77;;;10.68;;
80681;SDS011;70045;40.200;44.582;2024-01-11T00:09:06;23.10;;;10.50;;
80681;SDS011;70045;40.200;44.582;2024-01-11T00:11:32;26.55;;;11.63;;
80681;SDS011;70045;40.200;44.582;2024-01-11T00:14:07;22.05;;;10.75;;
80681;SDS011;70045;40.200;44.582;2024-01-11T00:16:33;23.27;;;11.40;;
80681;SDS011;70045;40.200;44.582;2024-01-11T00:18:58;21.10;;;10.38;;
80681;SDS011;70045;40.200;44.582;2024-01-11T00:21:23;24.48;;;10.55;;
80681;SDS011;70045;40.200;44.582;2024-01-11T00:23:49;21.27;;;9.80;;
80681;SDS011;70045;40.200;44.582;2024-01-11T00:26:24;23.30;;;9.27;;
80681;SDS011;70045;40.200;44.582;2024-01-11T00:28:50;19.55;;;8.93;;
80681;SDS011;70045;40.200;44.582;2024-01-11T00:31:15;17.20;;;8.18;;
80681;SDS011;70045;40.200;44.582;2024-01-11T00:33:40;19.10;;;9.13;;
80681;SDS011;70045;40.200;44.582;2024-01-11T00:36:06;18.65;;;8.10;;
80681;SDS011;70045;40.200;44.582;2024-01-11T00:38:41;15.32;;;8.02;;
80681;SDS011;70045;40.200;44.582;2024-01-11T00:41:07;15.52;;;7.47;;
80681;SDS011;70045;40.200;44.582;2024-01-11T00:43:32;17.45;;;7.55;;
80681;SDS011;70045;40.200;44.582;2024-01-11T00:45:57;15.57;;;7.45;;
80681;SDS011;70045;40.200;44.582;2024-01-11T00:48:23;14.68;;;7.85;;
80681;SDS011;70045;40.200;44.582;2024-01-11T00:50:58;14.07;;;7.10;;
80681;SDS011;70045;40.200;44.582;2024-01-11T00:53:24;15.15;;;6.90;;
80681;SDS011;70045;40.200;44.582;2024-01-11T00:55:50;15.85;;;8.30;;
80681;SDS011;70045;40.200;44.582;2024-01-11T00:58:16;13.63;;;7.18;;
80681;SDS011;70045;40.200;44.582;2024-01-11T01:00:41;16.02;;;6.80;;
80681;SDS011;70045;40.200;44.582;2024-01-11T01:03:16;14.57;;;6.80;;
80681;SDS011;70045;40.200;44.582;2024-01-11T01:05:42;14.98;;;7.60;;
80681;SDS011;70045;40.200;44.582;2024-01-11T01:08:07;15.90;;;6.90;;
80681;SDS011;70045;40.200;44.582;2024-01-11T01:10:33;14.13;;;6.47;;
80681;SDS011;70045;40.200;44.582;2024-01-11T01:12:58;12.82;;;6.07;;
80681;SDS011;70045;40.200;44.582;2024-01-11T01:15:33;14.57;;;6.72;;
80681;SDS011;70045;40.200;44.582;2024-01-11T01:17:59;13.18;;;6.45;;
80681;SDS011;70045;40.200;44.582;2024-01-11T01:20:24;13.50;;;6.30;;
80681;SDS011;70045;40.200;44.582;2024-01-11T01:22:50;15.63;;;6.03;;
80681;SDS011;70045;40.200;44.582;2024-01-11T01:25:15;13.50;;;6.18;;
80681;SDS011;70045;40.200;44.582;2024-01-11T01:27:50;11.05;;;5.28;;
80681;SDS011;70045;40.200;44.582;2024-01-11T01:30:16;11.77;;;5.53;;
80681;SDS011;70045;40.200;44.582;2024-01-11T01:32:41;11.40;;;5.43;;
80681;SDS011;70045;40.200;44.582;2024-01-11T01:35:07;10.32;;;4.78;;
80681;SDS011;70045;40.200;44.582;2024-01-11T01:37:32;11.20;;;4.55;;
80681;SDS011;70045;40.200;44.582;2024-01-11T01:40:09;12.38;;;5.25;;
80681;SDS011;70045;40.200;44.582;2024-01-11T01:42:34;9.18;;;4.32;;
80681;SDS011;70045;40.200;44.582;2024-01-11T01:45:00;10.68;;;4.47;;
80681;SDS011;70045;40.200;44.582;2024-01-11T01:47:26;9.73;;;4.13;;
80681;SDS011;70045;40.200;44.582;2024-01-11T01:49:52;7.68;;;3.80;;
80681;SDS011;70045;40.200;44.582;2024-01-11T01:52:29;7.15;;;3.33;;
80681;SDS011;70045;40.200;44.582;2024-01-11T01:54:55;9.52;;;3.97;;
80681;SDS011;70045;40.200;44.582;2024-01-11T01:57:22;9.68;;;3.20;;
80681;SDS011;70045;40.200;44.582;2024-01-11T01:59:49;8.32;;;3.33;;
80681;SDS011;70045;40.200;44.582;2024-01-11T02:02:16;6.70;;;3.08;;
80681;SDS011;70045;40.200;44.582;2024-01-11T02:04:52;6.93;;;3.30;;
80681;SDS011;70045;40.200;44.582;2024-01-11T02:07:18;6.45;;;3.15;;
80681;SDS011;70045;40.200;44.582;2024-01-11T02:09:44;7.82;;;3.30;;
80681;SDS011;70045;40.200;44.582;2024-01-11T02:12:10;8.52;;;2.97;;
80681;SDS011;70045;40.200;44.582;2024-01-11T02:14:37;6.30;;;2.72;;
80681;SDS011;70045;40.200;44.582;2024-01-11T02:17:12;7.68;;;2.97;;
80681;SDS011;70045;40.200;44.582;2024-01-11T02:19:38;7.10;;;3.13;;
80681;SDS011;70045;40.200;44.582;2024-01-11T02:22:08;8.45;;;3.33;;
80681;SDS011;70045;40.200;44.582;2024-01-11T02:24:40;7.22;;;2.95;;
80681;SDS011;70045;40.200;44.582;2024-01-11T02:27:05;9.10;;;3.13;;
80681;SDS011;70045;40.200;44.582;2024-01-11T02:29:41;11.52;;;3.47;;
80681;SDS011;70045;40.200;44.582;2024-01-11T02:32:07;7.00;;;3.20;;
80681;SDS011;70045;40.200;44.582;2024-01-11T02:34:32;6.53;;;2.90;;
80681;SDS011;70045;40.200;44.582;2024-01-11T02:36:59;8.25;;;3.25;;
80681;SDS011;70045;40.200;44.582;2024-01-11T02:39:24;7.43;;;2.90;;
80681;SDS011;70045;40.200;44.582;2024-01-11T02:42:00;7.47;;;3.47;;
80681;SDS011;70045;40.200;44.582;2024-01-11T02:44:26;11.27;;;3.35;;
80681;SDS011;70045;40.200;44.582;2024-01-11T02:46:51;8.52;;;4.00;;
80681;SDS011;70045;40.200;44.582;2024-01-11T02:49:17;9.07;;;3.65;;
80681;SDS011;70045;40.200;44.582;2024-01-11T02:51:43;8.32;;;3.75;;
80681;SDS011;70045;40.200;44.582;2024-01-11T02:54:18;9.20;;;4.07;;
80681;SDS011;70045;40.200;44.582;2024-01-11T02:56:44;10.70;;;4.10;;
80681;SDS011;70045;40.200;44.582;2024-01-11T02:59:09;14.50;;;4.30;;
80681;SDS011;70045;40.200;44.582;2024-01-11T03:01:35;10.07;;;3.83;;
80681;SDS011;70045;40.200;44.582;2024-01-11T03:04:00;9.73;;;4.20;;
80681;SDS011;70045;40.200;44.582;2024-01-11T03:06:36;8.95;;;3.83;;
80681;SDS011;70045;40.200;44.582;2024-01-11T03:09:02;8.75;;;3.63;;
80681;SDS011;70045;40.200;44.582;2024-01-11T03:11:27;9.88;;;3.70;;
80681;SDS011;70045;40.200;44.582;2024-01-11T03:13:53;8.68;;;3.70;;
80681;SDS011;70045;40.200;44.582;2024-01-11T03:16:18;7.65;;;3.72;;
80681;SDS011;70045;40.200;44.582;2024-01-11T03:18:53;7.57;;;3.83;;
80681;SDS011;70045;40.200;44.582;2024-01-11T03:21:19;9.68;;;3.50;;
80681;SDS011;70045;40.200;44.582;2024-01-11T03:23:44;8.52;;;3.63;;
80681;SDS011;70045;40.200;44.582;2024-01-11T03:26:13;7.05;;;3.10;;
80681;SDS011;70045;40.200;44.582;2024-01-11T03:28:41;10.38;;;3.50;;
80681;SDS011;70045;40.200;44.582;2024-01-11T03:31:16;6.28;;;2.75;;
80681;SDS011;70045;40.200;44.582;2024-01-11T03:33:42;6.03;;;2.60;;
80681;SDS011;70045;40.200;44.582;2024-01-11T03:36:11;7.53;;;3.40;;
80681;SDS011;70045;40.200;44.582;2024-01-11T03:38:37;9.02;;;3.58;;
80681;SDS011;70045;40.200;44.582;2024-01-11T03:41:12;7.50;;;3.17;;
80681;SDS011;70045;40.200;44.582;2024-01-11T03:43:48;7.72;;;3.10;;
80681;SDS011;70045;40.200;44.582;2024-01-11T03:46:15;7.93;;;3.78;;
80681;SDS011;70045;40.200;44.582;2024-01-11T03:48:40;7.72;;;3.05;;
80681;SDS011;70045;40.200;44.582;2024-01-11T03:51:05;10.73;;;3.25;;
80681;SDS011;70045;40.200;44.582;2024-01-11T03:53:34;8.30;;;2.90;;
80681;SDS011;70045;40.200;44.582;2024-01-11T03:56:10;8.55;;;3.28;;
80681;SDS011;70045;40.200;44.582;2024-01-11T03:58:36;10.65;;;4.32;;
80681;SDS011;70045;40.200;44.582;2024-01-11T04:01:01;10.43;;;4.78;;
80681;SDS011;70045;40.200;44.582;2024-01-11T04:03:27;9.52;;;3.78;;
80681;SDS011;70045;40.200;44.582;2024-01-11T04:05:52;8.60;;;3.33;;
80681;SDS011;70045;40.200;44.582;2024-01-11T04:08:28;5.35;;;2.60;;
80681;SDS011;70045;40.200;44.582;2024-01-11T04:10:54;7.03;;;3.08;;
80681;SDS011;70045;40.200;44.582;2024-01-11T04:13:19;6.78;;;3.05;;
80681;SDS011;70045;40.200;44.582;2024-01-11T04:15:45;8.20;;;3.00;;
80681;SDS011;70045;40.200;44.582;2024-01-11T04:18:10;5.78;;;2.67;;
80681;SDS011;70045;40.200;44.582;2024-01-11T04:21:22;7.28;;;2.95;;
80681;SDS011;70045;40.200;44.582;2024-01-11T04:23:49;6.20;;;2.63;;
80681;SDS011;70045;40.200;44.582;2024-01-11T04:26:14;6.55;;;3.30;;
80681;SDS011;70045;40.200;44.582;2024-01-11T04:28:40;6.80;;;3.00;;
80681;SDS011;70045;40.200;44.582;2024-01-11T04:31:07;25.02;;;10.77;;
80681;SDS011;70045;40.200;44.582;2024-01-11T04:33:44;14.48;;;7.15;;
80681;SDS011;70045;40.200;44.582;2024-01-11T04:36:10;13.82;;;6.50;;
80681;SDS011;70045;40.200;44.582;2024-01-11T04:38:36;12.45;;;4.78;;
80681;SDS011;70045;40.200;44.582;2024-01-11T04:41:02;10.23;;;3.60;;
80681;SDS011;70045;40.200;44.582;2024-01-11T04:43:38;9.35;;;3.80;;
80681;SDS011;70045;40.200;44.582;2024-01-11T04:46:21;13.98;;;3.53;;
80681;SDS011;70045;40.200;44.582;2024-01-11T04:48:47;17.40;;;6.57;;
80681;SDS011;70045;40.200;44.582;2024-01-11T04:51:14;18.42;;;7.00;;
80681;SDS011;70045;40.200;44.582;2024-01-11T04:53:40;17.17;;;6.35;;
80681;SDS011;70045;40.200;44.582;2024-01-11T04:56:07;17.27;;;5.95;;
80681;SDS011;70045;40.200;44.582;2024-01-11T04:58:44;16.58;;;5.72;;
80681;SDS011;70045;40.200;44.582;2024-01-11T05:01:13;14.18;;;5.55;;
80681;SDS011;70045;40.200;44.582;2024-01-11T05:03:40;15.50;;;6.55;;
80681;SDS011;70045;40.200;44.582;2024-01-11T05:06:06;13.90;;;5.43;;
80681;SDS011;70045;40.200;44.582;2024-01-11T05:08:32;15.55;;;5.60;;
80681;SDS011;70045;40.200;44.582;2024-01-11T05:11:08;15.32;;;5.18;;
80681;SDS011;70045;40.200;44.582;2024-01-11T05:13:39;9.80;;;4.05;;
80681;SDS011;70045;40.200;44.582;2024-01-11T05:16:05;8.77;;;3.50;;
80681;SDS011;70045;40.200;44.582;2024-01-11T05:18:30;6.50;;;3.05;;
80681;SDS011;70045;40.200;44.582;2024-01-11T05:20:55;6.78;;;3.05;;
80681;SDS011;70045;40.200;44.582;2024-01-11T05:23:32;8.38;;;3.50;;
80681;SDS011;70045;40.200;44.582;2024-01-11T05:25:57;11.48;;;3.92;;
80681;SDS011;70045;40.200;44.582;2024-01-11T05:28:22;12.07;;;4.03;;
80681;SDS011;70045;40.200;44.582;2024-01-11T05:30:48;8.38;;;3.25;;
80681;SDS011;70045;40.200;44.582;2024-01-11T05:33:13;5.82;;;2.80;;
80681;SDS011;70045;40.200;44.582;2024-01-11T05:35:49;5.53;;;2.50;;
80681;SDS011;70045;40.200;44.582;2024-01-11T05:38:15;7.80;;;2.92;;
80681;SDS011;70045;40.200;44.582;2024-01-11T05:40:40;6.65;;;2.67;;
80681;SDS011;70045;40.200;44.582;2024-01-11T05:43:06;6.65;;;2.95;;
80681;SDS011;70045;40.200;44.582;2024-01-11T05:45:31;4.78;;;2.13;;
80681;SDS011;70045;40.200;44.582;2024-01-11T05:48:09;4.53;;;2.22;;
80681;SDS011;70045;40.200;44.582;2024-01-11T05:50:35;5.07;;;2.13;;
80681;SDS011;70045;40.200;44.582;2024-01-11T05:53:01;6.45;;;2.63;;
80681;SDS011;70045;40.200;44.582;2024-01-11T05:55:26;6.30;;;2.70;;
80681;SDS011;70045;40.200;44.582;2024-01-11T05:57:52;9.77;;;3.03;;
80681;SDS011;70045;40.200;44.582;2024-01-11T06:00:27;5.47;;;2.20;;
80681;SDS011;70045;40.200;44.582;2024-01-11T06:02:53;6.05;;;2.08;;
80681;SDS011;70045;40.200;44.582;2024-01-11T06:05:18;5.32;;;2.33;;
80681;SDS011;70045;40.200;44.582;2024-01-11T06:07:44;4.93;;;2.50;;
80681;SDS011;70045;40.200;44.582;2024-01-11T06:10:09;8.57;;;3.05;;
80681;SDS011;70045;40.200;44.582;2024-01-11T06:12:45;5.97;;;2.92;;
80681;SDS011;70045;40.200;44.582;2024-01-11T06:15:11;5.88;;;2.70;;
80681;SDS011;70045;40.200;44.582;2024-01-11T06:17:36;7.45;;;3.10;;
80681;SDS011;70045;40.200;44.582;2024-01-11T06:20:02;7.22;;;3.03;;
80681;SDS011;70045;40.200;44.582;2024-01-11T06:22:27;11.95;;;4.30;;
80681;SDS011;70045;40.200;44.582;2024-01-11T06:25:04;11.57;;;4.50;;
80681;SDS011;70045;40.200;44.582;2024-01-11T06:27:29;5.80;;;2.63;;
80681;SDS011;70045;40.200;44.582;2024-01-11T06:29:55;5.32;;;2.80;;
80681;SDS011;70045;40.200;44.582;2024-01-11T06:32:21;6.53;;;2.60;;
80681;SDS011;70045;40.200;44.582;2024-01-11T06:34:46;7.80;;;3.20;;
80681;SDS011;70045;40.200;44.582;2024-01-11T06:37:22;6.45;;;2.47;;
80681;SDS011;70045;40.200;44.582;2024-01-11T06:39:48;6.25;;;2.25;;
80681;SDS011;70045;40.200;44.582;2024-01-11T06:42:13;4.50;;;2.17;;
80681;SDS011;70045;40.200;44.582;2024-01-11T06:44:39;3.63;;;2.00;;
80681;SDS011;70045;40.200;44.582;2024-01-11T06:47:04;3.97;;;2.15;;
80681;SDS011;70045;40.200;44.582;2024-01-11T06:49:41;4.57;;;1.75;;
80681;SDS011;70045;40.200;44.582;2024-01-11T06:52:06;3.13;;;1.70;;
80681;SDS011;70045;40.200;44.582;2024-01-11T06:54:32;5.45;;;1.80;;
80681;SDS011;70045;40.200;44.582;2024-01-11T06:56:57;4.95;;;1.75;;
80681;SDS011;70045;40.200;44.582;2024-01-11T06:59:23;3.35;;;1.83;;
80681;SDS011;70045;40.200;44.582;2024-01-11T07:01:58;4.20;;;1.70;;
80681;SDS011;70045;40.200;44.582;2024-01-11T07:04:26;2.72;;;1.45;;
80681;SDS011;70045;40.200;44.582;2024-01-11T07:06:52;5.13;;;1.83;;
80681;SDS011;70045;40.200;44.582;2024-01-11T07:09:17;4.68;;;2.00;;
80681;SDS011;70045;40.200;44.582;2024-01-11T07:11:43;4.93;;;2.20;;
80681;SDS011;70045;40.200;44.582;2024-01-11T07:14:19;5.18;;;2.00;;
80681;SDS011;70045;40.200;44.582;2024-01-11T07:16:45;5.95;;;2.38;;
80681;SDS011;70045;40.200;44.582;2024-01-11T07:19:10;5.35;;;2.50;;
80681;SDS011;70045;40.200;44.582;2024-01-11T07:21:36;6.45;;;2.63;;
80681;SDS011;70045;40.200;44.582;2024-01-11T07:24:01;4.80;;;2.40;;
80681;SDS011;70045;40.200;44.582;2024-01-11T07:26:37;6.97;;;2.67;;
80681;SDS011;70045;40.200;44.582;2024-01-11T07:29:03;9.93;;;3.78;;
80681;SDS011;70045;40.200;44.582;2024-01-11T07:31:28;15.23;;;5.30;;
80681;SDS011;70045;40.200;44.582;2024-01-11T07:33:54;11.73;;;4.47;;
80681;SDS011;70045;40.200;44.582;2024-01-11T07:36:19;12.88;;;4.75;;
80681;SDS011;70045;40.200;44.582;2024-01-11T07:38:56;15.18;;;4.75;;
80681;SDS011;70045;40.200;44.582;2024-01-11T07:41:21;17.63;;;5.05;;
80681;SDS011;70045;40.200;44.582;2024-01-11T07:43:47;22.17;;;6.22;;
80681;SDS011;70045;40.200;44.582;2024-01-11T07:46:12;22.20;;;7.60;;
80681;SDS011;70045;40.200;44.582;2024-01-11T07:48:38;24.20;;;7.10;;
80681;SDS011;70045;40.200;44.582;2024-01-11T07:51:13;24.25;;;7.80;;
80681;SDS011;70045;40.200;44.582;2024-01-11T07:53:39;19.15;;;7.00;;
80681;SDS011;70045;40.200;44.582;2024-01-11T07:56:04;15.63;;;6.68;;
80681;SDS011;70045;40.200;44.582;2024-01-11T07:58:30;15.13;;;6.40;;
80681;SDS011;70045;40.200;44.582;2024-01-11T08:00:55;20.42;;;5.68;;
80681;SDS011;70045;40.200;44.582;2024-01-11T08:03:31;12.88;;;4.60;;
80681;SDS011;70045;40.200;44.582;2024-01-11T08:05:57;15.05;;;4.80;;
80681;SDS011;70045;40.200;44.582;2024-01-11T08:08:23;13.55;;;4.47;;
80681;SDS011;70045;40.200;44.582;2024-01-11T08:10:48;11.50;;;4.05;;
80681;SDS011;70045;40.200;44.582;2024-01-11T08:13:14;11.82;;;4.22;;
80681;SDS011;70045;40.200;44.582;2024-01-11T08:15:51;7.63;;;3.80;;
80681;SDS011;70045;40.200;44.582;2024-01-11T08:18:19;8.52;;;3.85;;
80681;SDS011;70045;40.200;44.582;2024-01-11T08:20:44;12.63;;;3.88;;
80681;SDS011;70045;40.200;44.582;2024-01-11T08:23:10;12.77;;;4.40;;
80681;SDS011;70045;40.200;44.582;2024-01-11T08:25:39;10.98;;;4.50;;
80681;SDS011;70045;40.200;44.582;2024-01-11T08:28:14;9.05;;;4.05;;
80681;SDS011;70045;40.200;44.582;2024-01-11T08:30:40;29.70;;;9.30;;
80681;SDS011;70045;40.200;44.582;2024-01-11T08:33:05;17.00;;;6.03;;
80681;SDS011;70045;40.200;44.582;2024-01-11T08:35:31;10.68;;;4.63;;
80681;SDS011;70045;40.200;44.582;2024-01-11T08:37:56;15.20;;;4.78;;
80681;SDS011;70045;40.200;44.582;2024-01-11T08:40:32;8.68;;;4.65;;
80681;SDS011;70045;40.200;44.582;2024-01-11T08:45:23;12.17;;;4.90;;
80681;SDS011;70045;40.200;44.582;2024-01-11T08:47:48;15.75;;;5.22;;
80681;SDS011;70045;40.200;44.582;2024-01-11T08:50:14;13.00;;;4.90;;
80681;SDS011;70045;40.200;44.582;2024-01-11T08:52:50;12.52;;;5.18;;
80681;SDS011;70045;40.200;44.582;2024-01-11T08:55:16;13.10;;;4.72;;
80681;SDS011;70045;40.200;44.582;2024-01-11T08:57:41;13.73;;;4.80;;
80681;SDS011;70045;40.200;44.582;2024-01-11T09:00:07;12.65;;;5.30;;
80681;SDS011;70045;40.200;44.582;2024-01-11T09:02:32;14.88;;;5.25;;
80681;SDS011;70045;40.200;44.582;2024-01-11T09:05:08;15.05;;;5.50;;
80681;SDS011;70045;40.200;44.582;2024-01-11T09:07:34;17.45;;;7.07;;
80681;SDS011;70045;40.200;44.582;2024-01-11T09:09:59;24.70;;;9.23;;
80681;SDS011;70045;40.200;44.582;2024-01-11T09:12:25;22.13;;;8.98;;
80681;SDS011;70045;40.200;44.582;2024-01-11T09:14:50;22.90;;;9.15;;
80681;SDS011;70045;40.200;44.582;2024-01-11T09:17:26;21.48;;;9.70;;
80681;SDS011;70045;40.200;44.582;2024-01-11T09:19:52;20.42;;;9.43;;
80681;SDS011;70045;40.200;44.582;2024-01-11T09:22:18;21.55;;;9.93;;
80681;SDS011;70045;40.200;44.582;2024-01-11T09:24:43;21.25;;;9.45;;
80681;SDS011;70045;40.200;44.582;2024-01-11T09:27:09;22.60;;;9.77;;
80681;SDS011;70045;40.200;44.582;2024-01-11T09:29:45;23.08;;;9.60;;
80681;SDS011;70045;40.200;44.582;2024-01-11T09:32:11;21.52;;;9.15;;
80681;SDS011;70045;40.200;44.582;2024-01-11T09:34:37;20.63;;;9.05;;
80681;SDS011;70045;40.200;44.582;2024-01-11T09:37:02;25.90;;;8.98;;
80681;SDS011;70045;40.200;44.582;2024-01-11T09:39:28;22.42;;;8.77;;
80681;SDS011;70045;40.200;44.582;2024-01-11T09:42:08;27.10;;;9.63;;
80681;SDS011;70045;40.200;44.582;2024-01-11T09:44:34;24.35;;;9.73;;
80681;SDS011;70045;40.200;44.582;2024-01-11T09:47:01;20.73;;;9.18;;
80681;SDS011;70045;40.200;44.582;2024-01-11T09:49:27;23.58;;;10.23;;
80681;SDS011;70045;40.200;44.582;2024-01-11T09:51:55;20.42;;;8.75;;
80681;SDS011;70045;40.200;44.582;2024-01-11T09:54:31;30.95;;;9.52;;
80681;SDS011;70045;40.200;44.582;2024-01-11T09:56:58;21.55;;;9.82;;
80681;SDS011;70045;40.200;44.582;2024-01-11T09:59:24;21.77;;;8.90;;
80681;SDS011;70045;40.200;44.582;2024-01-11T10:01:50;19.88;;;9.35;;
80681;SDS011;70045;40.200;44.582;2024-01-11T10:04:16;21.90;;;9.35;;
80681;SDS011;70045;40.200;44.582;2024-01-11T10:06:51;21.45;;;8.70;;
80681;SDS011;70045;40.200;44.582;2024-01-11T10:09:18;19.92;;;8.25;;
80681;SDS011;70045;40.200;44.582;2024-01-11T10:11:44;16.92;;;8.18;;
80681;SDS011;70045;40.200;44.582;2024-01-11T10:14:11;24.73;;;9.48;;
80681;SDS011;70045;40.200;44.582;2024-01-11T10:16:37;25.75;;;9.32;;
80681;SDS011;70045;40.200;44.582;2024-01-11T10:19:12;20.83;;;8.90;;
80681;SDS011;70045;40.200;44.582;2024-01-11T10:21:38;21.98;;;10.07;;
80681;SDS011;70045;40.200;44.582;2024-01-11T10:24:03;21.55;;;9.95;;
80681;SDS011;70045;40.200;44.582;2024-01-11T10:26:29;22.63;;;9.82;;
80681;SDS011;70045;40.200;44.582;2024-01-11T10:28:58;19.75;;;9.80;;
80681;SDS011;70045;40.200;44.582;2024-01-11T10:31:33;23.15;;;9.48;;
80681;SDS011;70045;40.200;44.582;2024-01-11T10:33:59;20.13;;;8.88;;
80681;SDS011;70045;40.200;44.582;2024-01-11T10:36:24;23.90;;;9.57;;
80681;SDS011;70045;40.200;44.582;2024-01-11T10:38:49;25.58;;;10.07;;
80681;SDS011;70045;40.200;44.582;2024-01-11T10:41:18;21.42;;;10.30;;
80681;SDS011;70045;40.200;44.582;2024-01-11T10:43:54;20.70;;;10.57;;
80681;SDS011;70045;40.200;44.582;2024-01-11T10:46:23;24.70;;;10.48;;
80681;SDS011;70045;40.200;44.582;2024-01-11T10:48:52;25.25;;;10.73;;
80681;SDS011;70045;40.200;44.582;2024-01-11T10:51:24;27.17;;;11.20;;
80681;SDS011;70045;40.200;44.582;2024-01-11T10:53:53;23.60;;;10.43;;
80681;SDS011;70045;40.200;44.582;2024-01-11T10:56:29;22.05;;;8.98;;
80681;SDS011;70045;40.200;44.582;2024-01-11T10:58:57;22.67;;;8.88;;
80681;SDS011;70045;40.200;44.582;2024-01-11T11:01:23;21.88;;;8.57;;
80681;SDS011;70045;40.200;44.582;2024-01-11T11:03:49;19.77;;;8.38;;
80681;SDS011;70045;40.200;44.582;2024-01-11T11:06:27;20.83;;;9.82;;
80681;SDS011;70045;40.200;44.582;2024-01-11T11:08:54;14.88;;;7.22;;
80681;SDS011;70045;40.200;44.582;2024-01-11T11:11:20;13.25;;;6.22;;
80681;SDS011;70045;40.200;44.582;2024-01-11T11:13:47;14.32;;;5.68;;
80681;SDS011;70045;40.200;44.582;2024-01-11T11:16:14;11.45;;;5.30;;
80681;SDS011;70045;40.200;44.582;2024-01-11T11:18:52;19.35;;;8.82;;
80681;SDS011;70045;40.200;44.582;2024-01-11T11:21:19;32.63;;;11.25;;
80681;SDS011;70045;40.200;44.582;2024-01-11T11:23:45;38.22;;;13.93;;
80681;SDS011;70045;40.200;44.582;2024-01-11T11:26:14;37.35;;;14.82;;
80681;SDS011;70045;40.200;44.582;2024-01-11T11:28:40;41.50;;;16.13;;
80681;SDS011;70045;40.200;44.582;2024-01-11T11:31:34;35.97;;;15.23;;
80681;SDS011;70045;40.200;44.582;2024-01-11T11:34:03;36.20;;;15.00;;
80681;SDS011;70045;40.200;44.582;2024-01-11T11:36:29;38.22;;;15.38;;
80681;SDS011;70045;40.200;44.582;2024-01-11T11:38:55;36.42;;;15.32;;
80681;SDS011;70045;40.200;44.582;2024-01-11T11:41:32;36.88;;;15.35;;
80681;SDS011;70045;40.200;44.582;2024-01-11T11:44:01;40.20;;;15.20;;
80681;SDS011;70045;40.200;44.582;2024-01-11T11:46:27;37.20;;;16.77;;
80681;SDS011;70045;40.200;44.582;2024-01-11T11:48:53;45.85;;;17.33;;
80681;SDS011;70045;40.200;44.582;2024-01-11T11:51:18;45.10;;;18.17;;
80681;SDS011;70045;40.200;44.582;2024-01-11T11:53:55;39.50;;;15.75;;
80681;SDS011;70045;40.200;44.582;2024-01-11T11:56:22;38.03;;;16.77;;
80681;SDS011;70045;40.200;44.582;2024-01-11T11:58:48;43.70;;;17.02;;
80681;SDS011;70045;40.200;44.582;2024-01-11T12:01:14;39.33;;;16.67;;
80681;SDS011;70045;40.200;44.582;2024-01-11T12:03:41;43.30;;;17.67;;
80681;SDS011;70045;40.200;44.582;2024-01-11T12:06:17;43.83;;;16.65;;
80681;SDS011;70045;40.200;44.582;2024-01-11T12:08:44;38.67;;;16.48;;
80681;SDS011;70045;40.200;44.582;2024-01-11T12:11:14;45.50;;;16.70;;
80681;SDS011;70045;40.200;44.582;2024-01-11T12:13:42;42.83;;;17.00;;
80681;SDS011;70045;40.200;44.582;2024-01-11T12:16:08;35.55;;;15.68;;
80681;SDS011;70045;40.200;44.582;2024-01-11T12:18:43;39.40;;;15.00;;
80681;SDS011;70045;40.200;44.582;2024-01-11T12:21:08;36.63;;;15.68;;
80681;SDS011;70045;40.200;44.582;2024-01-11T12:23:37;39.03;;;15.77;;
80681;SDS011;70045;40.200;44.582;2024-01-11T12:26:08;39.40;;;16.30;;
80681;SDS011;70045;40.200;44.582;2024-01-11T12:28:39;41.85;;;16.92;;
80681;SDS011;70045;40.200;44.582;2024-01-11T12:31:41;42.67;;;16.17;;
80681;SDS011;70045;40.200;44.582;2024-01-11T12:34:13;42.08;;;15.65;;
80681;SDS011;70045;40.200;44.582;2024-01-11T12:36:41;36.97;;;14.02;;
80681;SDS011;70045;40.200;44.582;2024-01-11T12:39:07;35.08;;;16.50;;
80681;SDS011;70045;40.200;44.582;2024-01-11T12:41:33;45.25;;;17.40;;
80681;SDS011;70045;40.200;44.582;2024-01-11T12:44:09;37.17;;;16.42;;
80681;SDS011;70045;40.200;44.582;2024-01-11T12:46:34;42.08;;;14.38;;
80681;SDS011;70045;40.200;44.582;2024-01-11T12:49:00;38.83;;;16.08;;
80681;SDS011;70045;40.200;44.582;2024-01-11T12:51:26;39.22;;;15.90;;
80681;SDS011;70045;40.200;44.582;2024-01-11T12:53:54;36.92;;;14.70;;
80681;SDS011;70045;40.200;44.582;2024-01-11T12:56:32;42.92;;;15.88;;
80681;SDS011;70045;40.200;44.582;2024-01-11T12:59:07;32.30;;;14.98;;
80681;SDS011;70045;40.200;44.582;2024-01-11T13:01:33;34.50;;;15.63;;
80681;SDS011;70045;40.200;44.582;2024-01-11T13:03:59;41.33;;;15.10;;
80681;SDS011;70045;40.200;44.582;2024-01-11T13:06:24;39.55;;;15.30;;
80681;SDS011;70045;40.200;44.582;2024-01-11T13:09:00;42.80;;;16.23;;
80681;SDS011;70045;40.200;44.582;2024-01-11T13:11:26;47.15;;;18.25;;
80681;SDS011;70045;40.200;44.582;2024-01-11T13:13:51;38.40;;;15.82;;
80681;SDS011;70045;40.200;44.582;2024-01-11T13:16:17;46.10;;;17.13;;
80681;SDS011;70045;40.200;44.582;2024-01-11T13:18:42;40.70;;;18.60;;
80681;SDS011;70045;40.200;44.582;2024-01-11T13:21:18;40.28;;;16.45;;
80681;SDS011;70045;40.200;44.582;2024-01-11T13:23:43;43.03;;;15.00;;
80681;SDS011;70045;40.200;44.582;2024-01-11T13:26:09;47.42;;;19.15;;
80681;SDS011;70045;40.200;44.582;2024-01-11T13:28:34;44.47;;;17.77;;
80681;SDS011;70045;40.200;44.582;2024-01-11T13:31:00;39.33;;;16.35;;
80681;SDS011;70045;40.200;44.582;2024-01-11T13:33:38;40.88;;;17.67;;
80681;SDS011;70045;40.200;44.582;2024-01-11T13:36:06;45.25;;;16.85;;
80681;SDS011;70045;40.200;44.582;2024-01-11T13:38:32;51.22;;;20.40;;
80681;SDS011;70045;40.200;44.582;2024-01-11T13:40:57;49.13;;;20.10;;
80681;SDS011;70045;40.200;44.582;2024-01-11T13:43:23;47.97;;;18.42;;
80681;SDS011;70045;40.200;44.582;2024-01-11T13:45:58;45.88;;;18.70;;
80681;SDS011;70045;40.200;44.582;2024-01-11T13:48:23;52.20;;;18.27;;
80681;SDS011;70045;40.200;44.582;2024-01-11T13:50:49;60.90;;;24.00;;
80681;SDS011;70045;40.200;44.582;2024-01-11T13:53:14;70.43;;;25.38;;
80681;SDS011;70045;40.200;44.582;2024-01-11T13:55:40;60.63;;;24.10;;
80681;SDS011;70045;40.200;44.582;2024-01-11T13:58:15;50.17;;;18.92;;
80681;SDS011;70045;40.200;44.582;2024-01-11T14:00:41;41.35;;;17.75;;
80681;SDS011;70045;40.200;44.582;2024-01-11T14:03:06;43.97;;;16.42;;
80681;SDS011;70045;40.200;44.582;2024-01-11T14:05:32;46.55;;;17.35;;
80681;SDS011;70045;40.200;44.582;2024-01-11T14:07:58;45.45;;;18.65;;
80681;SDS011;70045;40.200;44.582;2024-01-11T14:10:27;42.53;;;19.98;;
80681;SDS011;70045;40.200;44.582;2024-01-11T14:12:53;44.03;;;17.48;;
80681;SDS011;70045;40.200;44.582;2024-01-11T14:15:18;41.17;;;15.75;;
80681;SDS011;70045;40.200;44.582;2024-01-11T14:17:44;43.95;;;18.10;;
80681;SDS011;70045;40.200;44.582;2024-01-11T14:20:09;47.85;;;19.08;;
80681;SDS011;70045;40.200;44.582;2024-01-11T14:22:42;44.45;;;17.63;;
80681;SDS011;70045;40.200;44.582;2024-01-11T14:25:08;42.80;;;18.02;;
80681;SDS011;70045;40.200;44.582;2024-01-11T14:27:34;47.38;;;17.55;;
80681;SDS011;70045;40.200;44.582;2024-01-11T14:29:59;46.47;;;18.08;;
80681;SDS011;70045;40.200;44.582;2024-01-11T14:32:25;43.63;;;17.98;;